Time;durP1;ratioP1;P1;durP2;ratioP2;P2;SDS_P1;SDS_P2;PMS_P1;PMS_P2;Temp;Humidity;BMP_temperature;BMP_pressure;BME280_temperature;BME280_humidity;BME280_pressure;Samples;Min_cycle;Max_cycle;Signal;HPM_P1;HPM_P2
2022/08/06 14:37:11;;;;;;;34.75;11.80;;;29.00;44.40;;;;;;5092488;27;20319;-63
2022/08/06 14:39:37;;;;;;;36.40;12.30;;;29.00;44.80;;;;;;5088116;28;20028;-62
2022/08/06 14:44:55;;;;;;;33.90;12.75;;;29.00;44.10;;;;;;5088446;28;20142;-62
2022/08/06 14:47:22;;;;;;;29.40;11.90;;;29.00;44.10;;;;;;5087206;28;20024;-62
2022/08/06 14:49:47;;;;;;;26.40;12.07;;;29.00;44.00;;;;;;5111634;22;20032;-60
2022/08/06 14:52:13;;;;;;;29.88;11.65;;;29.00;43.80;;;;;;5066296;28;20037;-60
2022/08/06 14:54:39;;;;;;;30.48;11.88;;;29.00;43.60;;;;;;5067765;28;20020;-60
2022/08/06 14:57:07;;;;;;;30.48;12.07;;;29.10;43.60;;;;;;5067221;28;20029;-61
2022/08/06 14:59:33;;;;;;;22.75;10.60;;;29.10;43.80;;;;;;5067643;28;20055;-61
2022/08/06 15:01:59;;;;;;;22.17;9.18;;;29.10;43.70;;;;;;5066487;28;20064;-61
2022/08/06 15:04:24;;;;;;;14.52;7.65;;;29.10;42.20;;;;;;5067521;28;20107;-61
2022/08/06 15:06:55;;;;;;;17.23;7.28;;;29.20;40.30;;;;;;5067499;28;20055;-61
2022/08/06 15:09:21;;;;;;;;;;;29.10;39.50;;;;;;5067245;28;20035;-61
2022/08/06 15:11:47;;;;;;;13.63;5.68;;;29.20;38.30;;;;;;5067493;28;20325;-61
2022/08/06 15:14:13;;;;;;;13.65;5.45;;;29.20;38.40;;;;;;5067510;28;20021;-61
2022/08/06 15:16:39;;;;;;;12.38;4.30;;;29.20;38.00;;;;;;5067299;28;20036;-61
2022/08/06 15:19:04;;;;;;;12.23;5.05;;;29.20;36.90;;;;;;5066601;28;20108;-61
2022/08/06 15:21:30;;;;;;;9.30;4.22;;;29.20;37.00;;;;;;5067197;28;20474;-61
2022/08/06 15:23:57;;;;;;;6.05;3.42;;;29.20;36.70;;;;;;5067307;28;20147;-63
2022/08/06 15:26:24;;;;;;;9.55;3.67;;;29.20;36.20;;;;;;5070306;28;20032;-64
2022/08/06 15:28:49;;;;;;;6.90;3.17;;;29.20;36.70;;;;;;5067812;28;20021;-63
2022/08/06 15:31:16;;;;;;;5.45;2.85;;;29.20;35.90;;;;;;5067952;28;20017;-65
2022/08/06 15:33:42;;;;;;;9.95;3.33;;;29.30;35.10;;;;;;5067671;28;20048;-60
2022/08/06 15:36:07;;;;;;;6.70;2.65;;;29.30;35.30;;;;;;5066738;28;20052;-61
2022/08/06 15:38:33;;;;;;;5.68;2.13;;;29.30;34.70;;;;;;5066134;28;20432;-59
2022/08/06 15:41:00;;;;;;;5.47;2.00;;;29.30;33.70;;;;;;5066410;28;20020;-61
2022/08/06 15:43:25;;;;;;;5.07;1.90;;;29.30;33.40;;;;;;5066194;28;20382;-62
2022/08/06 15:45:52;;;;;;;3.58;1.55;;;29.30;32.50;;;;;;5066211;28;20031;-62
2022/08/06 15:48:21;;;;;;;7.10;1.65;;;29.30;32.00;;;;;;5050608;28;20028;-62
2022/08/06 15:50:47;;;;;;;5.90;1.80;;;29.30;32.20;;;;;;5052897;28;20055;-61
2022/08/06 15:53:16;;;;;;;5.78;1.30;;;29.30;32.50;;;;;;5053055;28;20029;-61
2022/08/06 15:55:43;;;;;;;5.78;1.23;;;29.30;32.60;;;;;;5051237;28;20330;-62
2022/08/06 15:58:09;;;;;;;7.55;1.88;;;29.30;32.70;;;;;;5050296;28;20514;-61
2022/08/06 16:00:38;;;;;;;4.38;1.17;;;29.30;32.40;;;;;;5052561;28;20017;-60
2022/08/06 16:03:05;;;;;;;3.22;1.15;;;29.30;32.60;;;;;;5051734;28;20032;-61
2022/08/06 16:05:30;;;;;;;2.92;1.17;;;29.30;32.70;;;;;;5053044;28;20048;-61
2022/08/06 16:07:56;;;;;;;4.40;0.88;;;29.30;31.90;;;;;;5052501;28;20364;-62
2022/08/06 16:10:22;;;;;;;5.00;0.68;;;29.20;31.60;;;;;;5053273;28;20083;-61
2022/08/06 16:12:48;;;;;;;1.95;0.68;;;29.30;31.50;;;;;;5053284;28;20099;-61
2022/08/06 16:15:14;;;;;;;5.50;0.85;;;29.20;31.30;;;;;;5053276;28;20116;-61
2022/08/06 16:17:40;;;;;;;4.30;0.60;;;29.30;31.40;;;;;;5052844;28;20033;-61
2022/08/06 16:20:06;;;;;;;0.95;0.32;;;29.30;31.20;;;;;;5053057;28;20032;-60
2022/08/06 16:22:31;;;;;;;1.65;0.85;;;29.20;30.60;;;;;;5053134;28;20055;-60
2022/08/06 16:24:57;;;;;;;1.25;0.65;;;29.20;30.70;;;;;;5053316;28;20049;-62
2022/08/06 16:27:23;;;;;;;1.90;0.70;;;29.20;31.00;;;;;;5052507;28;20048;-61
2022/08/06 16:29:48;;;;;;;1.42;0.38;;;29.30;31.00;;;;;;5053019;28;20025;-60
2022/08/06 16:32:14;;;;;;;1.88;0.70;;;29.30;31.10;;;;;;5049349;28;20021;-60
2022/08/06 16:34:41;;;;;;;1.70;0.88;;;29.20;31.30;;;;;;5051530;28;20025;-60
2022/08/06 16:37:07;;;;;;;2.88;0.40;;;29.20;31.80;;;;;;5052253;28;20155;-61
2022/08/06 16:39:33;;;;;;;2.28;0.32;;;29.20;31.70;;;;;;5051339;28;20017;-58
2022/08/06 16:41:59;;;;;;;0.75;0.40;;;29.20;31.30;;;;;;5051393;28;20021;-61
2022/08/06 16:44:24;;;;;;;0.85;0.30;;;29.20;31.40;;;;;;5052297;28;20017;-61
2022/08/06 16:46:50;;;;;;;2.92;0.43;;;29.20;31.80;;;;;;5050528;28;20481;-61
2022/08/06 16:49:17;;;;;;;3.80;0.63;;;29.20;31.70;;;;;;5050412;28;20029;-63
2022/08/06 16:51:42;;;;;;;2.50;0.90;;;29.20;32.30;;;;;;5052025;28;20111;-65
2022/08/06 16:54:08;;;;;;;1.63;0.80;;;29.20;32.00;;;;;;5051774;28;20121;-63
2022/08/06 16:56:35;;;;;;;2.92;0.63;;;29.20;31.40;;;;;;5053363;28;20028;-64
2022/08/06 16:59:01;;;;;;;239.07;180.27;;;29.20;30.70;;;;;;5057393;28;20382;-66
2022/08/06 17:01:27;;;;;;;444.00;370.92;;;29.20;30.20;;;;;;5050300;28;20024;-67
2022/08/06 17:03:52;;;;;;;624.60;527.92;;;29.20;29.70;;;;;;5051838;28;20474;-66
2022/08/06 17:06:18;;;;;;;369.83;264.35;;;29.20;29.60;;;;;;5051987;28;20032;-62
2022/08/06 17:08:44;;;;;;;168.48;115.60;;;29.10;29.10;;;;;;5051233;28;20033;-64
2022/08/06 17:11:10;;;;;;;55.92;37.63;;;29.20;29.10;;;;;;5051482;28;20021;-66
2022/08/06 17:13:35;;;;;;;18.50;12.77;;;29.10;28.00;;;;;;5051399;28;20029;-63
2022/08/06 17:16:01;;;;;;;18.92;12.10;;;29.10;27.00;;;;;;5051908;28;20021;-64
2022/08/06 17:18:26;;;;;;;15.00;10.27;;;29.00;26.80;;;;;;5043299;28;20022;-66
2022/08/06 17:20:52;;;;;;;18.10;11.68;;;29.00;26.90;;;;;;5048684;28;20532;-63
2022/08/06 17:23:18;;;;;;;86.30;71.25;;;29.00;27.70;;;;;;5051857;28;20108;-65
2022/08/06 17:25:45;;;;;;;133.38;108.50;;;29.00;29.10;;;;;;5051745;28;20025;-61
2022/08/06 17:28:11;;;;;;;82.68;68.78;;;29.00;29.60;;;;;;5051212;28;20021;-62
2022/08/06 17:30:37;;;;;;;27.42;21.27;;;29.00;29.70;;;;;;5051557;28;20031;-64
2022/08/06 17:33:03;;;;;;;10.43;7.75;;;29.00;29.00;;;;;;5051472;28;20033;-65
2022/08/06 17:35:29;;;;;;;7.90;6.13;;;29.00;28.00;;;;;;5044055;28;20502;-68
2022/08/06 17:37:55;;;;;;;8.32;5.07;;;28.90;28.10;;;;;;5030747;28;20104;-63
2022/08/06 17:40:23;;;;;;;7.05;4.80;;;28.90;28.30;;;;;;5042114;28;20475;-63
2022/08/06 17:42:49;;;;;;;5.40;3.10;;;28.90;28.20;;;;;;5051257;28;20055;-65
2022/08/06 17:45:15;;;;;;;414.65;169.77;;;28.90;28.10;;;;;;5051758;28;20065;-63
2022/08/06 17:47:41;;;;;;;232.38;88.25;;;28.90;28.60;;;;;;5051276;28;20021;-64
2022/08/06 17:50:07;;;;;;;113.40;42.42;;;28.90;28.40;;;;;;5051740;28;20051;-63
2022/08/06 17:52:32;;;;;;;43.78;17.00;;;28.90;28.90;;;;;;5051784;28;20025;-65
2022/08/06 17:54:58;;;;;;;30.52;12.52;;;28.90;29.30;;;;;;5051358;28;20387;-63
2022/08/06 17:57:24;;;;;;;20.42;8.50;;;28.90;28.90;;;;;;5051371;28;20036;-62
2022/08/06 17:59:51;;;;;;;11.73;4.78;;;28.90;29.20;;;;;;5051613;28;20025;-63
2022/08/06 18:02:18;;;;;;;9.65;4.30;;;28.90;28.30;;;;;;5051566;28;20017;-63
2022/08/06 18:04:44;;;;;;;10.35;4.60;;;28.80;28.70;;;;;;5051631;28;20060;-62
2022/08/06 18:07:12;;;;;;;8.35;3.65;;;28.90;28.90;;;;;;5049475;28;20548;-64
2022/08/06 18:09:38;;;;;;;5.80;2.40;;;28.80;28.80;;;;;;5043961;28;20463;-64
2022/08/06 18:12:05;;;;;;;5.93;2.60;;;28.80;28.90;;;;;;5030903;28;20033;-60
2022/08/06 18:14:31;;;;;;;6.43;1.80;;;28.80;29.60;;;;;;5031707;28;20028;-62
2022/08/06 18:16:56;;;;;;;2.50;1.45;;;28.80;29.70;;;;;;5037845;28;20394;-61
2022/08/06 18:19:22;;;;;;;2.88;1.38;;;28.80;29.90;;;;;;5050656;28;20108;-63
2022/08/06 18:21:47;;;;;;;2.80;1.05;;;28.80;29.40;;;;;;5050681;28;20108;-66
2022/08/06 18:24:13;;;;;;;2.35;1.10;;;28.80;29.40;;;;;;5051470;28;20048;-66
2022/08/06 18:26:39;;;;;;;5.10;1.38;;;28.80;29.20;;;;;;5051271;28;20087;-63
2022/08/06 18:29:05;;;;;;;2.00;1.05;;;28.70;29.20;;;;;;5050562;28;20053;-63
2022/08/06 18:31:33;;;;;;;2.05;0.73;;;28.70;29.10;;;;;;5058054;28;20032;-63
2022/08/06 18:33:59;;;;;;;3.35;0.95;;;28.70;28.90;;;;;;5070831;28;20017;-64
2022/08/06 18:36:24;;;;;;;1.50;0.47;;;28.70;28.90;;;;;;5071249;28;20028;-63
2022/08/06 18:38:50;;;;;;;2.10;0.98;;;28.60;28.90;;;;;;5069769;28;20485;-63
2022/08/06 18:41:16;;;;;;;3.35;0.50;;;28.60;29.00;;;;;;5052393;28;20055;-64
2022/08/06 18:43:43;;;;;;;2.35;0.65;;;28.60;28.90;;;;;;5049612;28;20507;-63
2022/08/06 18:46:08;;;;;;;1.80;0.80;;;28.60;29.00;;;;;;5051053;28;20029;-62
2022/08/06 18:48:34;;;;;;;2.05;0.85;;;28.60;29.20;;;;;;5050506;28;20391;-64
2022/08/06 18:51:00;;;;;;;3.00;0.60;;;28.50;29.30;;;;;;5050892;28;20028;-64
2022/08/06 18:53:26;;;;;;;1.80;0.70;;;28.50;29.30;;;;;;5051269;28;20474;-65
2022/08/06 18:55:52;;;;;;;1.67;0.57;;;28.50;29.50;;;;;;5050966;28;20025;-64
2022/08/06 18:58:18;;;;;;;1.33;0.55;;;28.50;29.50;;;;;;5050297;28;20048;-63
2022/08/06 19:00:43;;;;;;;0.85;0.85;;;28.50;29.60;;;;;;5050665;28;20129;-64
2022/08/06 19:03:09;;;;;;;1.75;0.68;;;28.50;29.50;;;;;;5051111;28;20021;-64
2022/08/06 19:05:35;;;;;;;0.70;0.70;;;28.50;29.40;;;;;;5051159;28;20127;-65
2022/08/06 19:08:01;;;;;;;1.55;0.43;;;28.50;29.40;;;;;;5050204;28;20498;-64
2022/08/06 19:10:28;;;;;;;2.15;0.40;;;28.50;29.40;;;;;;5050806;28;20506;-64
2022/08/06 19:12:57;;;;;;;1.75;0.50;;;28.50;29.20;;;;;;5049559;28;20025;-63
2022/08/06 19:15:23;;;;;;;0.38;0.35;;;28.50;29.40;;;;;;5050396;28;20509;-64
2022/08/06 19:17:50;;;;;;;0.80;0.60;;;28.40;29.60;;;;;;5050237;28;20029;-64
2022/08/06 19:20:16;;;;;;;2.22;0.47;;;28.40;29.60;;;;;;5050917;28;20017;-65
2022/08/06 19:22:42;;;;;;;0.57;0.57;;;28.40;29.70;;;;;;5052598;28;20036;-64
2022/08/06 19:25:08;;;;;;;1.80;1.10;;;28.40;29.50;;;;;;5054689;28;20023;-65
2022/08/06 19:27:34;;;;;;;2.45;1.00;;;28.40;29.20;;;;;;5053872;28;20025;-63
2022/08/06 19:29:59;;;;;;;1.67;1.00;;;28.30;29.90;;;;;;5054515;28;20078;-61
2022/08/06 19:32:25;;;;;;;2.03;1.05;;;28.30;30.50;;;;;;5054711;28;20507;-62
2022/08/06 19:34:54;;;;;;;1.45;0.68;;;28.30;30.60;;;;;;5054368;28;20387;-62
2022/08/06 19:37:20;;;;;;;2.92;1.30;;;28.40;30.70;;;;;;5053591;28;20021;-63
2022/08/06 19:39:46;;;;;;;144.18;130.38;;;28.30;31.00;;;;;;5054629;28;20083;-62
2022/08/06 19:42:12;;;;;;;498.83;446.35;;;28.40;31.20;;;;;;5054520;28;20123;-61
2022/08/06 19:44:39;;;;;;;426.85;364.83;;;28.40;31.30;;;;;;5052885;28;20471;-61
2022/08/06 19:47:07;;;;;;;71.78;54.85;;;28.40;31.40;;;;;;5053244;28;20032;-62
2022/08/06 19:49:33;;;;;;;9.13;7.38;;;28.40;31.20;;;;;;5052791;28;20025;-62
2022/08/06 19:51:58;;;;;;;4.88;3.65;;;28.40;31.20;;;;;;5052088;28;20537;-62
2022/08/06 19:54:24;;;;;;;9.30;2.83;;;28.40;31.10;;;;;;5052286;28;20502;-62
2022/08/06 19:56:50;;;;;;;4.70;2.33;;;28.40;30.90;;;;;;5051992;28;20032;-63
2022/08/06 19:59:16;;;;;;;5.13;2.10;;;28.40;30.60;;;;;;5051446;28;20026;-64
2022/08/06 20:01:42;;;;;;;2.67;2.25;;;28.40;30.30;;;;;;5052137;28;20292;-61
2022/08/06 20:04:08;;;;;;;5.47;2.00;;;28.40;30.20;;;;;;5053368;28;20017;-62
2022/08/06 20:06:34;;;;;;;2.90;1.40;;;28.40;30.10;;;;;;5051997;28;20116;-62
2022/08/06 20:08:59;;;;;;;2.95;1.80;;;28.30;30.10;;;;;;5051860;28;20029;-62
2022/08/06 20:11:26;;;;;;;8.40;1.85;;;28.30;30.10;;;;;;5053079;28;20434;-62
2022/08/06 20:13:51;;;;;;;3.67;1.45;;;28.40;30.10;;;;;;5052932;28;20112;-61
2022/08/06 20:16:17;;;;;;;3.97;1.48;;;28.30;30.10;;;;;;5052824;28;20112;-66
2022/08/06 20:18:44;;;;;;;1.55;1.15;;;28.30;30.20;;;;;;5051884;28;20017;-63
2022/08/06 20:21:10;;;;;;;1.50;1.10;;;28.30;30.30;;;;;;5050344;28;20033;-62
2022/08/06 20:23:36;;;;;;;2.90;1.25;;;28.30;30.40;;;;;;5051162;28;20033;-60
2022/08/06 20:26:02;;;;;;;1.73;0.98;;;28.30;30.40;;;;;;5051400;28;20084;-63
2022/08/06 20:28:30;;;;;;;1.42;1.05;;;28.30;30.10;;;;;;5050640;28;20471;-62
2022/08/06 20:30:56;;;;;;;1.63;0.80;;;28.30;30.20;;;;;;5051526;28;20022;-62
2022/08/06 20:33:24;;;;;;;1.98;0.80;;;28.20;30.20;;;;;;5051030;28;20036;-62
2022/08/06 20:35:53;;;;;;;1.27;0.90;;;28.20;30.00;;;;;;5050880;28;20031;-61
2022/08/06 20:38:19;;;;;;;0.80;0.70;;;28.20;29.90;;;;;;5050677;28;20048;-62
2022/08/06 20:40:44;;;;;;;1.70;0.98;;;28.20;29.70;;;;;;5036342;28;20026;-63
2022/08/06 20:43:14;;;;;;;1.88;0.70;;;28.20;29.70;;;;;;5032036;28;20068;-63
2022/08/06 20:45:40;;;;;;;0.75;0.57;;;28.10;29.80;;;;;;5031773;28;20436;-61
2022/08/06 20:48:09;;;;;;;0.60;0.50;;;28.10;30.00;;;;;;5031189;28;20471;-60
2022/08/06 20:50:35;;;;;;;0.98;0.57;;;28.10;30.10;;;;;;5059818;22;20096;-60
2022/08/06 20:53:02;;;;;;;0.50;0.50;;;28.10;29.90;;;;;;5071839;28;20082;-61
2022/08/06 20:55:27;;;;;;;1.27;0.70;;;28.10;29.70;;;;;;5069851;28;20426;-61
2022/08/06 20:57:53;;;;;;;1.63;0.77;;;28.00;29.80;;;;;;5068355;28;20060;-62
2022/08/06 21:00:22;;;;;;;1.48;0.70;;;28.00;29.90;;;;;;5060685;28;20036;-61
2022/08/06 21:02:50;;;;;;;2.90;1.00;;;28.00;29.80;;;;;;5035481;28;20044;-61
2022/08/06 21:05:17;;;;;;;0.70;0.55;;;28.00;29.80;;;;;;5047683;28;20017;-60
2022/08/06 21:07:46;;;;;;;0.30;0.30;;;28.00;29.70;;;;;;5052520;28;20016;-63
2022/08/06 21:10:12;;;;;;;0.75;0.47;;;28.00;29.90;;;;;;5050451;28;20471;-62
2022/08/06 21:12:38;;;;;;;1.17;0.70;;;28.00;30.50;;;;;;5052673;28;20021;-62
2022/08/06 21:15:05;;;;;;;58.53;48.28;;;28.00;30.30;;;;;;5052416;28;20460;-62
2022/08/06 21:17:31;;;;;;;611.60;543.90;;;28.00;30.50;;;;;;5051571;28;20021;-62
2022/08/06 21:19:56;;;;;;;560.10;434.98;;;28.00;30.60;;;;;;5052586;28;20442;-63
2022/08/06 21:22:22;;;;;;;620.55;506.88;;;28.00;30.80;;;;;;5052620;28;20535;-62
2022/08/06 21:24:48;;;;;;;364.77;254.35;;;27.90;30.80;;;;;;5052412;28;20395;-63
2022/08/06 21:27:14;;;;;;;362.02;217.60;;;27.90;30.60;;;;;;5051893;28;20025;-62
2022/08/06 21:29:39;;;;;;;363.77;207.63;;;27.90;30.60;;;;;;5050874;28;20086;-62
2022/08/06 21:32:05;;;;;;;347.05;190.15;;;27.90;30.40;;;;;;5051816;28;20032;-63
2022/08/06 21:34:31;;;;;;;255.90;145.45;;;27.90;30.50;;;;;;5052152;28;20032;-64
2022/08/06 21:36:58;;;;;;;200.48;120.25;;;27.90;30.40;;;;;;5052031;28;20032;-63
2022/08/06 21:39:26;;;;;;;179.30;107.88;;;27.90;30.40;;;;;;5050288;28;20083;-63
2022/08/06 21:41:52;;;;;;;166.70;98.75;;;27.90;30.30;;;;;;5052050;28;20024;-64
2022/08/06 21:44:18;;;;;;;150.38;86.40;;;27.90;30.40;;;;;;5051893;28;20020;-63
2022/08/06 21:46:44;;;;;;;138.63;80.93;;;27.90;30.60;;;;;;5050065;28;20266;-64
2022/08/06 21:49:09;;;;;;;127.43;73.45;;;27.90;30.70;;;;;;5051173;28;20045;-64
2022/08/06 21:51:35;;;;;;;116.15;65.35;;;27.80;30.70;;;;;;5051614;28;20041;-64
2022/08/06 21:54:01;;;;;;;92.82;54.15;;;27.80;30.50;;;;;;5051916;28;20052;-63
2022/08/06 21:56:27;;;;;;;84.07;46.58;;;27.80;30.30;;;;;;5051748;28;20027;-63
2022/08/06 21:58:54;;;;;;;74.57;43.33;;;27.70;30.40;;;;;;5050827;28;20071;-63
2022/08/06 22:01:24;;;;;;;67.35;38.75;;;27.70;30.40;;;;;;5050227;28;20017;-63
2022/08/06 22:03:51;;;;;;;58.58;34.05;;;27.70;30.20;;;;;;5051931;28;20031;-63
2022/08/06 22:06:18;;;;;;;49.40;29.65;;;27.70;30.40;;;;;;5051817;28;20083;-63
2022/08/06 22:08:44;;;;;;;47.53;28.00;;;27.70;30.40;;;;;;5051034;28;20063;-63
2022/08/06 22:11:10;;;;;;;41.42;24.13;;;27.70;30.40;;;;;;5051484;28;20059;-62
2022/08/06 22:13:35;;;;;;;35.97;22.63;;;27.60;30.50;;;;;;5051515;28;20025;-62
2022/08/06 22:16:01;;;;;;;35.95;20.88;;;27.70;30.60;;;;;;5051396;28;20029;-62
2022/08/06 22:18:27;;;;;;;29.75;17.70;;;27.60;30.50;;;;;;5050665;28;20025;-63
2022/08/06 22:20:52;;;;;;;28.70;16.45;;;27.60;30.60;;;;;;5051512;28;20025;-65
2022/08/06 22:23:18;;;;;;;30.35;17.00;;;27.60;30.50;;;;;;5049564;28;20037;-62
2022/08/06 22:25:45;;;;;;;32.92;18.30;;;27.60;31.00;;;;;;5050428;28;20029;-63
2022/08/06 22:28:12;;;;;;;33.33;19.63;;;27.50;31.60;;;;;;5050779;28;20029;-62
2022/08/06 22:30:37;;;;;;;31.73;19.77;;;27.50;31.90;;;;;;5049413;28;20032;-64
2022/08/06 22:33:07;;;;;;;32.90;20.38;;;27.50;32.10;;;;;;5043635;28;20399;-64
2022/08/06 22:35:35;;;;;;;29.90;18.50;;;27.50;32.30;;;;;;5049864;28;20163;-64
2022/08/06 22:38:03;;;;;;;30.05;18.95;;;27.50;32.40;;;;;;5050689;28;20415;-64
2022/08/06 22:40:33;;;;;;;29.42;17.33;;;27.50;32.60;;;;;;5051199;28;20079;-63
2022/08/06 22:43:00;;;;;;;30.13;17.75;;;27.50;32.70;;;;;;5051240;28;20039;-65
2022/08/06 22:45:26;;;;;;;31.27;18.65;;;27.50;32.80;;;;;;5051352;28;20029;-62
2022/08/06 22:47:52;;;;;;;28.05;17.58;;;27.50;32.90;;;;;;5050487;28;20029;-63
2022/08/06 22:50:17;;;;;;;29.40;16.80;;;27.50;33.00;;;;;;5051203;28;20032;-64
2022/08/06 22:52:43;;;;;;;26.75;16.65;;;27.50;33.00;;;;;;5051110;28;20502;-64
2022/08/06 22:55:09;;;;;;;27.25;16.48;;;27.50;33.10;;;;;;5051143;28;20036;-64
2022/08/06 22:57:35;;;;;;;28.60;16.35;;;27.60;33.20;;;;;;5052053;28;20096;-63
2022/08/06 23:00:01;;;;;;;26.65;16.35;;;27.50;33.30;;;;;;5054882;28;20048;-63
2022/08/06 23:02:26;;;;;;;27.63;16.60;;;27.60;33.30;;;;;;5055119;28;20048;-63
2022/08/06 23:04:52;;;;;;;27.38;16.65;;;27.60;33.40;;;;;;5055138;28;20021;-64
2022/08/06 23:07:18;;;;;;;26.15;15.52;;;27.60;33.50;;;;;;5054371;28;20033;-63
2022/08/06 23:09:44;;;;;;;26.88;15.40;;;27.50;33.60;;;;;;5055114;28;20096;-62
2022/08/06 23:12:10;;;;;;;21.55;14.05;;;27.60;33.60;;;;;;5054936;28;20125;-63
2022/08/06 23:14:36;;;;;;;22.70;14.20;;;27.60;33.70;;;;;;5054805;28;20025;-63
2022/08/06 23:17:03;;;;;;;25.58;15.70;;;27.60;33.80;;;;;;5054427;28;20028;-64
2022/08/06 23:19:29;;;;;;;22.88;13.98;;;27.60;33.90;;;;;;5054755;28;20029;-63
2022/08/06 23:21:55;;;;;;;24.48;13.48;;;27.60;33.90;;;;;;5055196;28;20376;-62
2022/08/06 23:24:20;;;;;;;22.35;13.57;;;27.60;33.90;;;;;;5054934;28;20379;-63
2022/08/06 23:26:46;;;;;;;22.23;13.95;;;27.60;34.00;;;;;;5055839;28;20032;-61
2022/08/06 23:29:12;;;;;;;20.85;12.95;;;27.60;34.00;;;;;;5055810;28;20029;-63
2022/08/06 23:31:38;;;;;;;21.27;13.32;;;27.70;34.10;;;;;;5056269;28;20031;-61
2022/08/06 23:34:07;;;;;;;20.17;13.25;;;27.60;34.10;;;;;;5055501;28;20036;-62
2022/08/06 23:36:33;;;;;;;19.67;12.80;;;27.60;34.20;;;;;;5057344;28;20064;-62
2022/08/06 23:38:59;;;;;;;20.98;13.20;;;27.60;34.20;;;;;;5055220;28;20025;-64
2022/08/06 23:41:24;;;;;;;20.25;12.60;;;27.60;34.30;;;;;;5055638;28;20025;-63
2022/08/06 23:43:50;;;;;;;18.75;12.18;;;27.70;34.30;;;;;;5055142;28;20041;-63
2022/08/06 23:46:16;;;;;;;18.50;12.30;;;27.60;34.30;;;;;;5054346;28;20033;-63
2022/08/06 23:48:41;;;;;;;19.83;12.30;;;27.70;34.40;;;;;;5052327;28;20032;-63
2022/08/06 23:51:07;;;;;;;18.77;12.20;;;27.70;34.40;;;;;;5054108;28;20037;-63
2022/08/06 23:53:35;;;;;;;19.33;12.77;;;27.70;34.40;;;;;;5054192;28;20029;-63
2022/08/06 23:56:01;;;;;;;19.33;11.82;;;27.70;34.50;;;;;;5052731;28;20090;-62
2022/08/06 23:58:27;;;;;;;18.10;11.50;;;27.70;34.50;;;;;;5053588;28;20078;-64
